Details for EasyJet at EHAM




Go Back


Latest METAR
Local Time

EHAM 221055Z 26016KT 220V290 9999 FEW034 16/08 Q1017 NOSIG
22/09/2018, 13:15:13

Description
Results
EasyJet Logo
Number of Pilots based at EHAM
2 Pilots Based here
Number of EasyJet Flights Departed from EHAM
8 Flights Departed
Number of EasyJet Flights Arrived at EHAM
11 Flights Arrived
Number of EasyJet Schedules Departing from EHAM
134 Schedules
Number of EasyJet Schedules Arriving at EHAM
129 Schedules
Number of EasyJet Schedules Departing from EHAM availible today
40 Schedules Today
Number of EasyJet Schedules Arriving at EHAM availible today
40 Schedules Today
Average Landing Rate at EHAM
-212 fpm
EasyJet Average Landing Rate at EHAM
-240 fpm
Total Fuel Purchased at EHAM by EasyJet
12,441.88 kgs / 27,429.37 lbs

Pilots Based at EHAM


Pilot ID
Pilot Name
Pilot Rank
No. of Flights
No. of Flying Hours
Youri Rutten
85
202.27
James Hatcher
130
556.42
Content